Main page
METAR-TAF:

METAR-TAF

Airports :

Manchester Airport

Manchester, England

latitude: 53-21N, longitude: 002-17W, elevation: 69 m

Current weather observation

The report was made 32 minutes ago, at 05:20 UTC
Wind 2 kt from the East/Southeast
Temperature 16°C
Humidity 77%
Pressure 1017 hPa
Visibility 10 km or more

METAR: EGCC 250520Z AUTO 11002KT 9999 NCD 16/12 Q1017

Time: 06:52 (05:52 UTC)

Forecast

The report was made 54 minutes ago, at 04:58 UTC
Forecast valid from 25 at 06 UTC to 26 at 12 UTC
Wind 5 kt from the South/Southeast
Visibility 10 km or more
Few clouds at a height of 4500 ft
Temporary
from 25 at 21 UTC to 26 at 06 UTC
Visibility: 9000 m
Temporary
from 26 at 00 UTC to 26 at 08 UTC
Broken clouds at a height of 500 ft
Probability 30% :
Temporary
from 26 at 00 UTC to 26 at 07 UTC
Visibility: 0800 m
Broken clouds at a height of 100 ft
fog

TAF: EGCC 250458Z 2506/2612 15005KT 9999 FEW045 TEMPO 2521/2606 9000 TEMPO 2600/2608 BKN005 PROB30 TEMPO 2600/2607 0800 FG BKN001

Weather observations and forecasts of more than 4000 airports (METAR and TAF reports).

The available stations are represented by yellow and red dots on the map.

Hover mouse over dot to see the name of the station.

Then click to see weather observations and forecasts.

To change the map : click on the green buttons with a black cross to zoom in, on the green button with a dash to zoom out, or on the green arrows for adjacent maps.


METAR-TAF: